Observations for Trim Market St
| Time | AQI | Temp °C | Hum % | Pres Pa | CO μg/m³ | H₂S μg/m³ | NO μg/m³ | NO₂ μg/m³ | O₃ μg/m³ | SO₂ μg/m³ | PM1 μg/m³ | PM2.5 μg/m³ | PM10 μg/m³ |
|---|---|---|---|---|---|---|---|---|---|---|---|---|---|
| Saturday 15 August 2026 | |||||||||||||
| 11:59 | 2 | 27.1 | 34 | 65,795 | 0 | 0 | 1.03 | 14.34 | 103.92 | 0 | 0 | 3.16 | 3.48 |
| 11:58 | 2 | 27.2 | 33 | 65,786 | 0 | 0 | 0.99 | 8.93 | 82.51 | 0 | 0 | 2.63 | 2.89 |
| 11:57 | 2 | 27.3 | 33 | 65,799 | 0 | 0 | 0.92 | 10.8 | 110.73 | 0 | 0 | 2.63 | 2.89 |
| 11:56 | 2 | 27.4 | 33 | 65,809 | 0 | 0 | 0.9 | 9.81 | 79.26 | 0 | 0 | 2.63 | 2.89 |
| 11:55 | 2 | 27.4 | 33 | 65,829 | 0 | 0 | 0.92 | 9.35 | 93.99 | 0 | 0 | 3.17 | 3.49 |
| 11:54 | 2 | 27.5 | 33 | 65,851 | 0 | 0 | 0.94 | 8.45 | 73.2 | 0 | 0 | 3.18 | 3.5 |
| 11:53 | 2 | 27.6 | 33 | 65,849 | 0 | 0 | 0.96 | 8.98 | 68.56 | 0 | 0.71 | 3.72 | 4.09 |
| 11:52 | 2 | 27.6 | 33 | 65,843 | 0 | 0 | 0.99 | 11.84 | 97.63 | 0 | 0 | 2.63 | 2.9 |
| 11:51 | 2 | 27.7 | 33 | 65,835 | 0 | 0 | 1.03 | 10.79 | 96.2 | 0 | 0 | 2.64 | 2.91 |
| 11:50 | 2 | 27.7 | 33 | 65,825 | 0 | 0 | 1.02 | 13.22 | 109.47 | 0 | 0 | 2.65 | 2.92 |
| 11:49 | 2 | 27.7 | 33 | 65,837 | 0 | 0 | 0.98 | 10.37 | 73.19 | 0 | 0 | 2.65 | 2.91 |
| 11:47 | 2 | 27.8 | 33 | 65,855 | 0 | 0 | 0.98 | 8.59 | 72.8 | 0 | 0 | 3.18 | 3.5 |
| 11:43 | 2 | 27.8 | 33 | 65,862 | 0 | 0 | 1.02 | 8.53 | 75.51 | 0 | 0 | 2.64 | 2.91 |
| 11:42 | 2 | 27.7 | 33 | 65,829 | 0 | 0 | 1.18 | 11.61 | 94.96 | 0 | 0 | 2.64 | 2.91 |
| 11:38 | 2 | 27.9 | 32 | 65,868 | 8.88 | 17.05 | 1.08 | 24.49 | 67.97 | 0 | 0.71 | 3.2 | 3.52 |
| 11:32 | 2 | 28.4 | 32 | 65,894 | 0 | 0 | 1.39 | 13.35 | 119.11 | 0 | 0 | 2.71 | 2.98 |
| 11:31 | 2 | 28.5 | 32 | 65,890 | 0 | 0 | 1.57 | 5.32 | 48.89 | 0 | 0 | 2.7 | 2.97 |
| 11:30 | 2 | 28.6 | 32 | 65,923 | 0 | 0 | 1.54 | 8.24 | 64.54 | 0 | 0.71 | 3.78 | 4.16 |
| 11:29 | 2 | 28.6 | 32 | 65,902 | 0 | 0 | 1.55 | 13.44 | 52.38 | 0 | 2.85 | 5.95 | 6.54 |
| 11:28 | 2 | 28.6 | 32 | 65,904 | 0 | 0 | 1.13 | 11.9 | 66.41 | 0 | 0 | 2.7 | 2.97 |